sensor_id;sensor_type;location;lat;lon;timestamp;P1;durP1;ratioP1;P2;durP2;ratioP2
67108;SDS011;54027;50.786;7.058;2023-11-19T00:02:18;1.17;;;0.65;;
67108;SDS011;54027;50.786;7.058;2023-11-19T00:04:53;0.90;;;0.70;;
67108;SDS011;54027;50.786;7.058;2023-11-19T00:09:45;2.63;;;0.70;;
67108;SDS011;54027;50.786;7.058;2023-11-19T00:12:10;1.95;;;0.80;;
67108;SDS011;54027;50.786;7.058;2023-11-19T00:14:35;0.68;;;0.52;;
67108;SDS011;54027;50.786;7.058;2023-11-19T00:17:01;0.73;;;0.52;;
67108;SDS011;54027;50.786;7.058;2023-11-19T00:22:16;2.00;;;0.47;;
67108;SDS011;54027;50.786;7.058;2023-11-19T00:24:42;1.00;;;0.60;;
67108;SDS011;54027;50.786;7.058;2023-11-19T00:27:07;1.25;;;0.50;;
67108;SDS011;54027;50.786;7.058;2023-11-19T00:29:33;1.45;;;0.70;;
67108;SDS011;54027;50.786;7.058;2023-11-19T00:31:58;1.02;;;0.55;;
67108;SDS011;54027;50.786;7.058;2023-11-19T00:34:23;2.38;;;0.70;;
67108;SDS011;54027;50.786;7.058;2023-11-19T00:36:49;2.92;;;0.68;;
67108;SDS011;54027;50.786;7.058;2023-11-19T00:39:14;1.30;;;0.80;;
67108;SDS011;54027;50.786;7.058;2023-11-19T00:41:40;1.20;;;0.80;;
67108;SDS011;54027;50.786;7.058;2023-11-19T00:44:06;3.08;;;1.92;;
67108;SDS011;54027;50.786;7.058;2023-11-19T00:46:31;1.70;;;0.90;;
67108;SDS011;54027;50.786;7.058;2023-11-19T00:48:57;0.77;;;0.60;;
67108;SDS011;54027;50.786;7.058;2023-11-19T00:51:24;2.00;;;0.60;;
67108;SDS011;54027;50.786;7.058;2023-11-19T00:53:51;1.00;;;0.60;;
67108;SDS011;54027;50.786;7.058;2023-11-19T00:56:18;1.77;;;0.57;;
67108;SDS011;54027;50.786;7.058;2023-11-19T00:58:44;1.90;;;1.20;;
67108;SDS011;54027;50.786;7.058;2023-11-19T01:01:13;0.77;;;0.63;;
67108;SDS011;54027;50.786;7.058;2023-11-19T01:03:38;0.82;;;0.60;;
67108;SDS011;54027;50.786;7.058;2023-11-19T01:06:04;1.13;;;0.50;;
67108;SDS011;54027;50.786;7.058;2023-11-19T01:08:29;2.70;;;0.77;;
67108;SDS011;54027;50.786;7.058;2023-11-19T01:10:55;1.60;;;1.00;;
67108;SDS011;54027;50.786;7.058;2023-11-19T01:13:20;1.83;;;0.70;;
67108;SDS011;54027;50.786;7.058;2023-11-19T01:15:46;1.27;;;0.80;;
67108;SDS011;54027;50.786;7.058;2023-11-19T01:18:12;0.95;;;0.50;;
67108;SDS011;54027;50.786;7.058;2023-11-19T01:20:38;3.05;;;0.75;;
67108;SDS011;54027;50.786;7.058;2023-11-19T01:23:03;1.25;;;0.68;;
67108;SDS011;54027;50.786;7.058;2023-11-19T01:25:29;0.88;;;0.55;;
67108;SDS011;54027;50.786;7.058;2023-11-19T01:27:54;2.20;;;0.70;;
67108;SDS011;54027;50.786;7.058;2023-11-19T01:30:22;1.23;;;0.63;;
67108;SDS011;54027;50.786;7.058;2023-11-19T01:32:47;1.52;;;0.93;;
67108;SDS011;54027;50.786;7.058;2023-11-19T01:35:13;3.13;;;0.90;;
67108;SDS011;54027;50.786;7.058;2023-11-19T01:44:17;1.70;;;0.95;;
67108;SDS011;54027;50.786;7.058;2023-11-19T01:46:43;3.17;;;1.60;;
67108;SDS011;54027;50.786;7.058;2023-11-19T01:49:12;1.50;;;1.13;;
67108;SDS011;54027;50.786;7.058;2023-11-19T01:51:42;2.60;;;0.77;;
67108;SDS011;54027;50.786;7.058;2023-11-19T01:54:08;1.23;;;0.57;;
67108;SDS011;54027;50.786;7.058;2023-11-19T01:56:34;1.00;;;0.50;;
67108;SDS011;54027;50.786;7.058;2023-11-19T01:59:00;1.10;;;0.60;;
67108;SDS011;54027;50.786;7.058;2023-11-19T02:01:54;0.85;;;0.40;;
67108;SDS011;54027;50.786;7.058;2023-11-19T02:04:20;0.60;;;0.40;;
67108;SDS011;54027;50.786;7.058;2023-11-19T02:06:46;1.25;;;0.30;;
67108;SDS011;54027;50.786;7.058;2023-11-19T02:09:38;0.55;;;0.30;;
67108;SDS011;54027;50.786;7.058;2023-11-19T02:12:30;0.82;;;0.60;;
67108;SDS011;54027;50.786;7.058;2023-11-19T02:15:00;0.80;;;0.50;;
67108;SDS011;54027;50.786;7.058;2023-11-19T02:17:27;0.70;;;0.50;;
67108;SDS011;54027;50.786;7.058;2023-11-19T02:20:05;0.55;;;0.40;;
67108;SDS011;54027;50.786;7.058;2023-11-19T02:22:34;0.75;;;0.38;;
67108;SDS011;54027;50.786;7.058;2023-11-19T02:24:59;0.52;;;0.50;;
67108;SDS011;54027;50.786;7.058;2023-11-19T02:30:26;0.57;;;0.25;;
67108;SDS011;54027;50.786;7.058;2023-11-19T02:32:53;0.40;;;0.30;;
67108;SDS011;54027;50.786;7.058;2023-11-19T02:35:22;1.90;;;0.57;;
67108;SDS011;54027;50.786;7.058;2023-11-19T02:37:48;1.85;;;0.40;;
67108;SDS011;54027;50.786;7.058;2023-11-19T02:40:13;1.48;;;0.38;;
67108;SDS011;54027;50.786;7.058;2023-11-19T02:42:39;0.80;;;0.30;;
67108;SDS011;54027;50.786;7.058;2023-11-19T02:45:04;0.73;;;0.32;;
67108;SDS011;54027;50.786;7.058;2023-11-19T02:47:31;1.58;;;0.60;;
67108;SDS011;54027;50.786;7.058;2023-11-19T02:49:57;1.17;;;0.68;;
67108;SDS011;54027;50.786;7.058;2023-11-19T02:52:23;0.90;;;0.80;;
67108;SDS011;54027;50.786;7.058;2023-11-19T02:54:50;1.20;;;0.68;;
67108;SDS011;54027;50.786;7.058;2023-11-19T02:57:16;1.20;;;0.63;;
67108;SDS011;54027;50.786;7.058;2023-11-19T02:59:44;1.65;;;0.80;;
67108;SDS011;54027;50.786;7.058;2023-11-19T03:02:10;1.20;;;0.60;;
67108;SDS011;54027;50.786;7.058;2023-11-19T03:04:36;3.63;;;0.60;;
67108;SDS011;54027;50.786;7.058;2023-11-19T03:07:05;1.23;;;0.40;;
67108;SDS011;54027;50.786;7.058;2023-11-19T03:09:32;1.33;;;0.60;;
67108;SDS011;54027;50.786;7.058;2023-11-19T03:11:58;0.90;;;0.60;;
67108;SDS011;54027;50.786;7.058;2023-11-19T03:14:24;0.80;;;0.32;;
67108;SDS011;54027;50.786;7.058;2023-11-19T03:16:49;0.90;;;0.40;;
67108;SDS011;54027;50.786;7.058;2023-11-19T03:19:15;1.48;;;0.60;;
67108;SDS011;54027;50.786;7.058;2023-11-19T03:21:41;1.60;;;0.50;;
67108;SDS011;54027;50.786;7.058;2023-11-19T03:24:06;2.25;;;0.60;;
67108;SDS011;54027;50.786;7.058;2023-11-19T03:26:33;2.28;;;0.77;;
67108;SDS011;54027;50.786;7.058;2023-11-19T03:28:59;2.15;;;0.75;;
67108;SDS011;54027;50.786;7.058;2023-11-19T03:31:24;2.80;;;1.05;;
67108;SDS011;54027;50.786;7.058;2023-11-19T03:33:50;5.25;;;1.40;;
67108;SDS011;54027;50.786;7.058;2023-11-19T03:36:16;5.85;;;1.25;;
67108;SDS011;54027;50.786;7.058;2023-11-19T03:39:22;9.38;;;2.50;;
67108;SDS011;54027;50.786;7.058;2023-11-19T03:41:50;10.40;;;2.40;;
67108;SDS011;54027;50.786;7.058;2023-11-19T03:44:15;11.73;;;2.08;;
67108;SDS011;54027;50.786;7.058;2023-11-19T03:49:41;17.92;;;2.63;;
67108;SDS011;54027;50.786;7.058;2023-11-19T03:52:06;8.40;;;2.10;;
67108;SDS011;54027;50.786;7.058;2023-11-19T03:54:32;12.57;;;2.53;;
67108;SDS011;54027;50.786;7.058;2023-11-19T03:56:57;9.43;;;1.98;;
67108;SDS011;54027;50.786;7.058;2023-11-19T03:59:25;6.40;;;2.35;;
67108;SDS011;54027;50.786;7.058;2023-11-19T04:01:50;12.32;;;2.72;;
67108;SDS011;54027;50.786;7.058;2023-11-19T04:04:16;16.38;;;3.10;;
67108;SDS011;54027;50.786;7.058;2023-11-19T04:06:41;12.07;;;2.75;;
67108;SDS011;54027;50.786;7.058;2023-11-19T04:09:06;10.80;;;2.47;;
67108;SDS011;54027;50.786;7.058;2023-11-19T04:11:32;12.90;;;2.70;;
67108;SDS011;54027;50.786;7.058;2023-11-19T04:13:57;8.80;;;2.38;;
67108;SDS011;54027;50.786;7.058;2023-11-19T04:16:26;11.88;;;2.35;;
67108;SDS011;54027;50.786;7.058;2023-11-19T04:18:53;13.70;;;2.40;;
67108;SDS011;54027;50.786;7.058;2023-11-19T04:21:19;9.50;;;2.38;;
67108;SDS011;54027;50.786;7.058;2023-11-19T04:23:44;9.10;;;1.70;;
67108;SDS011;54027;50.786;7.058;2023-11-19T04:26:09;15.90;;;2.40;;
67108;SDS011;54027;50.786;7.058;2023-11-19T04:28:35;10.40;;;1.73;;
67108;SDS011;54027;50.786;7.058;2023-11-19T04:31:00;8.85;;;1.80;;
67108;SDS011;54027;50.786;7.058;2023-11-19T04:33:26;15.32;;;2.58;;
67108;SDS011;54027;50.786;7.058;2023-11-19T04:35:51;9.15;;;1.85;;
67108;SDS011;54027;50.786;7.058;2023-11-19T04:38:16;11.90;;;2.08;;
67108;SDS011;54027;50.786;7.058;2023-11-19T04:40:42;8.20;;;1.98;;
67108;SDS011;54027;50.786;7.058;2023-11-19T04:43:07;13.63;;;1.67;;
67108;SDS011;54027;50.786;7.058;2023-11-19T04:45:32;9.75;;;2.13;;
67108;SDS011;54027;50.786;7.058;2023-11-19T04:47:58;9.45;;;2.33;;
67108;SDS011;54027;50.786;7.058;2023-11-19T04:50:26;11.18;;;2.42;;
67108;SDS011;54027;50.786;7.058;2023-11-19T04:52:52;11.05;;;2.50;;
67108;SDS011;54027;50.786;7.058;2023-11-19T04:55:18;9.27;;;2.10;;
67108;SDS011;54027;50.786;7.058;2023-11-19T04:57:44;9.48;;;2.38;;
67108;SDS011;54027;50.786;7.058;2023-11-19T05:00:09;7.25;;;2.08;;
67108;SDS011;54027;50.786;7.058;2023-11-19T05:02:36;13.68;;;4.07;;
67108;SDS011;54027;50.786;7.058;2023-11-19T05:05:02;8.88;;;2.42;;
67108;SDS011;54027;50.786;7.058;2023-11-19T05:07:29;12.10;;;1.85;;
67108;SDS011;54027;50.786;7.058;2023-11-19T05:09:55;14.15;;;2.40;;
67108;SDS011;54027;50.786;7.058;2023-11-19T05:12:20;14.90;;;2.30;;
67108;SDS011;54027;50.786;7.058;2023-11-19T05:14:46;13.80;;;3.15;;
67108;SDS011;54027;50.786;7.058;2023-11-19T05:17:14;16.65;;;2.60;;
67108;SDS011;54027;50.786;7.058;2023-11-19T05:19:40;15.07;;;2.95;;
67108;SDS011;54027;50.786;7.058;2023-11-19T05:22:05;17.35;;;2.25;;
67108;SDS011;54027;50.786;7.058;2023-11-19T05:24:31;12.65;;;2.53;;
67108;SDS011;54027;50.786;7.058;2023-11-19T05:26:56;14.45;;;2.42;;
67108;SDS011;54027;50.786;7.058;2023-11-19T05:29:23;15.55;;;2.30;;
67108;SDS011;54027;50.786;7.058;2023-11-19T05:31:48;12.02;;;3.05;;
67108;SDS011;54027;50.786;7.058;2023-11-19T05:34:13;12.75;;;2.70;;
67108;SDS011;54027;50.786;7.058;2023-11-19T05:36:40;12.27;;;2.97;;
67108;SDS011;54027;50.786;7.058;2023-11-19T05:39:05;10.63;;;2.25;;
67108;SDS011;54027;50.786;7.058;2023-11-19T05:41:30;16.38;;;3.83;;
67108;SDS011;54027;50.786;7.058;2023-11-19T05:43:56;13.23;;;2.90;;
67108;SDS011;54027;50.786;7.058;2023-11-19T05:46:21;21.38;;;3.45;;
67108;SDS011;54027;50.786;7.058;2023-11-19T05:48:46;12.43;;;2.90;;
67108;SDS011;54027;50.786;7.058;2023-11-19T05:51:12;17.40;;;2.95;;
67108;SDS011;54027;50.786;7.058;2023-11-19T05:53:39;12.45;;;3.28;;
67108;SDS011;54027;50.786;7.058;2023-11-19T05:56:05;9.43;;;2.22;;
67108;SDS011;54027;50.786;7.058;2023-11-19T05:58:32;14.30;;;3.08;;
67108;SDS011;54027;50.786;7.058;2023-11-19T06:00:58;21.50;;;2.90;;
67108;SDS011;54027;50.786;7.058;2023-11-19T06:03:25;14.90;;;2.55;;
67108;SDS011;54027;50.786;7.058;2023-11-19T06:05:51;19.10;;;3.30;;
67108;SDS011;54027;50.786;7.058;2023-11-19T06:08:20;12.13;;;2.63;;
67108;SDS011;54027;50.786;7.058;2023-11-19T06:10:52;18.65;;;2.63;;
67108;SDS011;54027;50.786;7.058;2023-11-19T06:13:17;15.77;;;3.85;;
67108;SDS011;54027;50.786;7.058;2023-11-19T06:15:44;13.02;;;2.50;;
67108;SDS011;54027;50.786;7.058;2023-11-19T06:18:10;18.20;;;2.80;;
67108;SDS011;54027;50.786;7.058;2023-11-19T06:20:37;17.60;;;3.50;;
67108;SDS011;54027;50.786;7.058;2023-11-19T06:23:02;16.25;;;3.53;;
67108;SDS011;54027;50.786;7.058;2023-11-19T06:25:28;16.42;;;3.08;;
67108;SDS011;54027;50.786;7.058;2023-11-19T06:27:53;15.15;;;3.08;;
67108;SDS011;54027;50.786;7.058;2023-11-19T06:30:19;21.42;;;3.20;;
67108;SDS011;54027;50.786;7.058;2023-11-19T06:32:45;15.80;;;3.85;;
67108;SDS011;54027;50.786;7.058;2023-11-19T06:35:10;17.13;;;2.95;;
67108;SDS011;54027;50.786;7.058;2023-11-19T06:37:38;17.75;;;3.47;;
67108;SDS011;54027;50.786;7.058;2023-11-19T06:40:03;17.52;;;2.95;;
67108;SDS011;54027;50.786;7.058;2023-11-19T06:42:30;13.57;;;3.63;;
67108;SDS011;54027;50.786;7.058;2023-11-19T06:44:55;14.07;;;3.45;;
67108;SDS011;54027;50.786;7.058;2023-11-19T06:47:22;15.57;;;2.95;;
67108;SDS011;54027;50.786;7.058;2023-11-19T06:49:49;14.18;;;3.45;;
67108;SDS011;54027;50.786;7.058;2023-11-19T06:52:15;20.60;;;3.30;;
67108;SDS011;54027;50.786;7.058;2023-11-19T06:54:41;13.80;;;3.42;;
67108;SDS011;54027;50.786;7.058;2023-11-19T06:57:06;14.15;;;3.28;;
67108;SDS011;54027;50.786;7.058;2023-11-19T06:59:32;14.90;;;3.20;;
67108;SDS011;54027;50.786;7.058;2023-11-19T07:01:58;15.63;;;2.50;;
67108;SDS011;54027;50.786;7.058;2023-11-19T07:04:24;20.13;;;2.88;;
67108;SDS011;54027;50.786;7.058;2023-11-19T07:06:49;24.35;;;4.60;;
67108;SDS011;54027;50.786;7.058;2023-11-19T07:09:15;17.25;;;3.60;;
67108;SDS011;54027;50.786;7.058;2023-11-19T07:11:40;22.48;;;3.30;;
67108;SDS011;54027;50.786;7.058;2023-11-19T07:14:09;19.85;;;3.38;;
67108;SDS011;54027;50.786;7.058;2023-11-19T07:16:35;12.07;;;2.85;;
67108;SDS011;54027;50.786;7.058;2023-11-19T07:19:02;15.27;;;3.75;;
67108;SDS011;54027;50.786;7.058;2023-11-19T07:21:28;12.02;;;3.15;;
67108;SDS011;54027;50.786;7.058;2023-11-19T07:23:57;18.40;;;3.97;;
67108;SDS011;54027;50.786;7.058;2023-11-19T07:26:23;15.15;;;3.22;;
67108;SDS011;54027;50.786;7.058;2023-11-19T07:28:49;14.38;;;3.05;;
67108;SDS011;54027;50.786;7.058;2023-11-19T07:31:15;21.73;;;3.55;;
67108;SDS011;54027;50.786;7.058;2023-11-19T07:33:40;14.13;;;2.65;;
67108;SDS011;54027;50.786;7.058;2023-11-19T07:36:09;13.35;;;3.03;;
67108;SDS011;54027;50.786;7.058;2023-11-19T07:38:35;22.83;;;3.40;;
67108;SDS011;54027;50.786;7.058;2023-11-19T07:41:01;21.80;;;3.50;;
67108;SDS011;54027;50.786;7.058;2023-11-19T07:43:26;14.75;;;3.35;;
67108;SDS011;54027;50.786;7.058;2023-11-19T07:45:52;25.10;;;3.55;;
67108;SDS011;54027;50.786;7.058;2023-11-19T07:48:17;25.58;;;4.10;;
67108;SDS011;54027;50.786;7.058;2023-11-19T07:50:47;20.92;;;3.45;;
67108;SDS011;54027;50.786;7.058;2023-11-19T07:53:15;16.85;;;3.47;;
67108;SDS011;54027;50.786;7.058;2023-11-19T07:55:41;20.45;;;3.35;;
67108;SDS011;54027;50.786;7.058;2023-11-19T07:58:06;18.17;;;3.83;;
67108;SDS011;54027;50.786;7.058;2023-11-19T08:00:31;18.30;;;3.50;;
67108;SDS011;54027;50.786;7.058;2023-11-19T08:02:57;19.13;;;3.63;;
67108;SDS011;54027;50.786;7.058;2023-11-19T08:05:22;15.73;;;3.30;;
67108;SDS011;54027;50.786;7.058;2023-11-19T08:07:49;13.70;;;2.67;;
67108;SDS011;54027;50.786;7.058;2023-11-19T08:10:15;16.30;;;3.28;;
67108;SDS011;54027;50.786;7.058;2023-11-19T08:12:40;13.48;;;3.40;;
67108;SDS011;54027;50.786;7.058;2023-11-19T08:15:06;15.15;;;3.10;;
67108;SDS011;54027;50.786;7.058;2023-11-19T08:17:32;19.63;;;3.67;;
67108;SDS011;54027;50.786;7.058;2023-11-19T08:19:57;19.38;;;3.55;;
67108;SDS011;54027;50.786;7.058;2023-11-19T08:22:25;21.23;;;3.80;;
67108;SDS011;54027;50.786;7.058;2023-11-19T08:24:50;18.58;;;4.13;;
67108;SDS011;54027;50.786;7.058;2023-11-19T08:27:16;17.80;;;2.90;;
67108;SDS011;54027;50.786;7.058;2023-11-19T08:29:41;14.23;;;4.03;;
67108;SDS011;54027;50.786;7.058;2023-11-19T08:32:07;16.52;;;3.38;;
67108;SDS011;54027;50.786;7.058;2023-11-19T08:34:32;17.45;;;3.63;;
67108;SDS011;54027;50.786;7.058;2023-11-19T08:36:59;21.58;;;4.07;;
67108;SDS011;54027;50.786;7.058;2023-11-19T08:39:24;20.23;;;3.50;;
67108;SDS011;54027;50.786;7.058;2023-11-19T08:41:50;18.30;;;3.15;;
67108;SDS011;54027;50.786;7.058;2023-11-19T08:44:16;24.17;;;4.05;;
67108;SDS011;54027;50.786;7.058;2023-11-19T08:46:50;15.60;;;3.25;;
67108;SDS011;54027;50.786;7.058;2023-11-19T08:49:15;25.33;;;4.70;;
67108;SDS011;54027;50.786;7.058;2023-11-19T08:51:41;22.42;;;5.90;;
67108;SDS011;54027;50.786;7.058;2023-11-19T08:54:06;21.50;;;4.85;;
67108;SDS011;54027;50.786;7.058;2023-11-19T08:56:32;17.50;;;3.75;;
67108;SDS011;54027;50.786;7.058;2023-11-19T08:58:59;20.33;;;3.83;;
67108;SDS011;54027;50.786;7.058;2023-11-19T09:01:25;17.92;;;3.92;;
67108;SDS011;54027;50.786;7.058;2023-11-19T09:03:50;27.08;;;4.25;;
67108;SDS011;54027;50.786;7.058;2023-11-19T09:06:16;14.05;;;3.60;;
67108;SDS011;54027;50.786;7.058;2023-11-19T09:08:44;18.60;;;4.10;;
67108;SDS011;54027;50.786;7.058;2023-11-19T09:11:09;25.42;;;4.43;;
67108;SDS011;54027;50.786;7.058;2023-11-19T09:13:35;18.58;;;4.90;;
67108;SDS011;54027;50.786;7.058;2023-11-19T09:16:01;23.75;;;3.88;;
67108;SDS011;54027;50.786;7.058;2023-11-19T09:18:29;13.95;;;3.50;;
67108;SDS011;54027;50.786;7.058;2023-11-19T09:20:56;14.73;;;3.92;;
67108;SDS011;54027;50.786;7.058;2023-11-19T09:23:22;19.80;;;5.18;;
67108;SDS011;54027;50.786;7.058;2023-11-19T09:25:49;21.52;;;4.00;;
67108;SDS011;54027;50.786;7.058;2023-11-19T09:28:14;19.63;;;4.28;;
67108;SDS011;54027;50.786;7.058;2023-11-19T09:30:40;22.73;;;3.97;;
67108;SDS011;54027;50.786;7.058;2023-11-19T09:33:05;18.10;;;3.25;;
67108;SDS011;54027;50.786;7.058;2023-11-19T09:35:31;30.67;;;4.32;;
67108;SDS011;54027;50.786;7.058;2023-11-19T09:37:56;24.17;;;4.97;;
67108;SDS011;54027;50.786;7.058;2023-11-19T09:40:21;20.30;;;4.03;;
67108;SDS011;54027;50.786;7.058;2023-11-19T09:42:47;24.45;;;4.28;;
67108;SDS011;54027;50.786;7.058;2023-11-19T09:45:14;16.90;;;3.88;;
67108;SDS011;54027;50.786;7.058;2023-11-19T09:47:44;24.92;;;4.18;;
67108;SDS011;54027;50.786;7.058;2023-11-19T09:50:17;20.75;;;4.85;;
67108;SDS011;54027;50.786;7.058;2023-11-19T09:52:44;22.55;;;4.32;;
67108;SDS011;54027;50.786;7.058;2023-11-19T09:55:10;16.83;;;3.97;;
67108;SDS011;54027;50.786;7.058;2023-11-19T09:57:36;20.98;;;4.13;;
67108;SDS011;54027;50.786;7.058;2023-11-19T10:00:07;17.90;;;4.38;;
67108;SDS011;54027;50.786;7.058;2023-11-19T10:02:33;18.05;;;4.00;;
67108;SDS011;54027;50.786;7.058;2023-11-19T10:05:01;19.33;;;3.33;;
67108;SDS011;54027;50.786;7.058;2023-11-19T10:07:30;19.13;;;3.85;;
67108;SDS011;54027;50.786;7.058;2023-11-19T10:09:58;18.45;;;4.20;;
67108;SDS011;54027;50.786;7.058;2023-11-19T10:12:25;23.65;;;3.75;;
67108;SDS011;54027;50.786;7.058;2023-11-19T10:14:51;17.80;;;3.70;;
67108;SDS011;54027;50.786;7.058;2023-11-19T10:17:19;22.52;;;4.35;;
67108;SDS011;54027;50.786;7.058;2023-11-19T10:19:44;20.67;;;3.72;;
67108;SDS011;54027;50.786;7.058;2023-11-19T10:22:09;21.35;;;4.45;;
67108;SDS011;54027;50.786;7.058;2023-11-19T10:24:36;22.52;;;3.60;;
67108;SDS011;54027;50.786;7.058;2023-11-19T10:30:30;24.00;;;4.35;;
67108;SDS011;54027;50.786;7.058;2023-11-19T10:36:03;19.23;;;3.80;;
67108;SDS011;54027;50.786;7.058;2023-11-19T10:38:30;20.67;;;4.55;;
67108;SDS011;54027;50.786;7.058;2023-11-19T10:40:56;20.70;;;4.25;;
67108;SDS011;54027;50.786;7.058;2023-11-19T10:43:22;21.02;;;4.47;;
67108;SDS011;54027;50.786;7.058;2023-11-19T10:45:48;17.70;;;3.70;;
67108;SDS011;54027;50.786;7.058;2023-11-19T10:48:14;16.50;;;4.32;;
67108;SDS011;54027;50.786;7.058;2023-11-19T10:50:40;19.13;;;3.80;;
67108;SDS011;54027;50.786;7.058;2023-11-19T10:53:07;16.33;;;3.80;;
67108;SDS011;54027;50.786;7.058;2023-11-19T10:55:35;14.40;;;3.25;;
67108;SDS011;54027;50.786;7.058;2023-11-19T10:58:04;19.08;;;4.30;;
67108;SDS011;54027;50.786;7.058;2023-11-19T11:00:30;17.27;;;3.50;;
67108;SDS011;54027;50.786;7.058;2023-11-19T11:03:03;17.13;;;3.70;;
67108;SDS011;54027;50.786;7.058;2023-11-19T11:05:35;20.55;;;4.45;;
67108;SDS011;54027;50.786;7.058;2023-11-19T11:08:03;17.17;;;3.53;;
67108;SDS011;54027;50.786;7.058;2023-11-19T11:10:31;17.08;;;4.13;;
67108;SDS011;54027;50.786;7.058;2023-11-19T11:13:01;16.83;;;3.67;;
67108;SDS011;54027;50.786;7.058;2023-11-19T11:15:28;13.95;;;3.63;;
67108;SDS011;54027;50.786;7.058;2023-11-19T11:17:57;17.95;;;3.95;;
67108;SDS011;54027;50.786;7.058;2023-11-19T11:20:30;16.02;;;4.47;;
67108;SDS011;54027;50.786;7.058;2023-11-19T11:26:00;18.30;;;3.15;;
67108;SDS011;54027;50.786;7.058;2023-11-19T11:28:43;18.85;;;4.05;;
67108;SDS011;54027;50.786;7.058;2023-11-19T11:37:02;16.58;;;3.80;;
67108;SDS011;54027;50.786;7.058;2023-11-19T11:39:42;16.75;;;3.05;;
67108;SDS011;54027;50.786;7.058;2023-11-19T11:45:37;13.88;;;2.83;;
67108;SDS011;54027;50.786;7.058;2023-11-19T11:48:08;14.32;;;3.58;;
67108;SDS011;54027;50.786;7.058;2023-11-19T11:50:48;11.40;;;2.40;;
67108;SDS011;54027;50.786;7.058;2023-11-19T11:53:16;13.27;;;3.00;;
67108;SDS011;54027;50.786;7.058;2023-11-19T11:58:54;16.83;;;3.22;;
67108;SDS011;54027;50.786;7.058;2023-11-19T12:01:20;14.95;;;3.20;;
67108;SDS011;54027;50.786;7.058;2023-11-19T12:03:46;13.45;;;2.40;;
67108;SDS011;54027;50.786;7.058;2023-11-19T12:06:11;15.52;;;3.42;;
67108;SDS011;54027;50.786;7.058;2023-11-19T12:08:37;13.85;;;2.63;;
67108;SDS011;54027;50.786;7.058;2023-11-19T12:11:04;13.20;;;3.15;;
67108;SDS011;54027;50.786;7.058;2023-11-19T12:13:46;13.68;;;2.88;;
67108;SDS011;54027;50.786;7.058;2023-11-19T12:16:20;14.02;;;2.78;;
67108;SDS011;54027;50.786;7.058;2023-11-19T12:18:46;12.65;;;2.58;;
67108;SDS011;54027;50.786;7.058;2023-11-19T12:21:26;10.27;;;2.85;;
67108;SDS011;54027;50.786;7.058;2023-11-19T12:23:53;12.00;;;2.72;;
67108;SDS011;54027;50.786;7.058;2023-11-19T12:26:35;13.48;;;2.92;;
67108;SDS011;54027;50.786;7.058;2023-11-19T12:29:02;17.92;;;3.17;;
67108;SDS011;54027;50.786;7.058;2023-11-19T12:31:32;12.05;;;3.05;;
67108;SDS011;54027;50.786;7.058;2023-11-19T12:33:57;14.15;;;2.90;;
67108;SDS011;54027;50.786;7.058;2023-11-19T12:36:23;12.57;;;2.70;;
67108;SDS011;54027;50.786;7.058;2023-11-19T12:38:49;19.38;;;3.40;;
67108;SDS011;54027;50.786;7.058;2023-11-19T12:41:16;10.90;;;2.78;;
67108;SDS011;54027;50.786;7.058;2023-11-19T12:43:45;16.50;;;2.78;;
67108;SDS011;54027;50.786;7.058;2023-11-19T12:46:20;17.48;;;3.70;;
67108;SDS011;54027;50.786;7.058;2023-11-19T12:48:49;13.95;;;3.38;;
67108;SDS011;54027;50.786;7.058;2023-11-19T12:51:16;9.60;;;2.85;;
67108;SDS011;54027;50.786;7.058;2023-11-19T12:53:51;17.45;;;3.50;;
67108;SDS011;54027;50.786;7.058;2023-11-19T12:56:22;13.48;;;3.20;;
67108;SDS011;54027;50.786;7.058;2023-11-19T12:58:48;12.27;;;2.45;;
67108;SDS011;54027;50.786;7.058;2023-11-19T13:01:15;16.10;;;3.17;;
67108;SDS011;54027;50.786;7.058;2023-11-19T13:03:45;7.40;;;2.10;;
67108;SDS011;54027;50.786;7.058;2023-11-19T13:06:12;8.48;;;2.03;;
67108;SDS011;54027;50.786;7.058;2023-11-19T13:08:42;11.88;;;2.63;;
67108;SDS011;54027;50.786;7.058;2023-11-19T13:11:13;12.55;;;2.72;;
67108;SDS011;54027;50.786;7.058;2023-11-19T13:16:28;12.02;;;2.40;;
67108;SDS011;54027;50.786;7.058;2023-11-19T13:22:04;11.40;;;2.95;;
67108;SDS011;54027;50.786;7.058;2023-11-19T13:24:30;14.30;;;3.10;;
67108;SDS011;54027;50.786;7.058;2023-11-19T13:26:55;16.40;;;2.88;;
67108;SDS011;54027;50.786;7.058;2023-11-19T13:29:20;16.92;;;2.95;;
67108;SDS011;54027;50.786;7.058;2023-11-19T13:31:46;16.15;;;2.75;;
67108;SDS011;54027;50.786;7.058;2023-11-19T13:34:12;13.23;;;3.00;;
67108;SDS011;54027;50.786;7.058;2023-11-19T13:36:37;16.17;;;2.47;;
67108;SDS011;54027;50.786;7.058;2023-11-19T13:39:03;15.82;;;3.05;;
67108;SDS011;54027;50.786;7.058;2023-11-19T13:41:29;15.68;;;2.92;;
67108;SDS011;54027;50.786;7.058;2023-11-19T13:43:54;16.80;;;3.92;;
67108;SDS011;54027;50.786;7.058;2023-11-19T13:46:20;12.07;;;2.72;;
67108;SDS011;54027;50.786;7.058;2023-11-19T13:48:46;19.05;;;3.58;;
67108;SDS011;54027;50.786;7.058;2023-11-19T13:51:11;17.00;;;3.53;;
67108;SDS011;54027;50.786;7.058;2023-11-19T13:53:37;11.93;;;2.90;;
67108;SDS011;54027;50.786;7.058;2023-11-19T13:56:03;15.18;;;3.13;;
67108;SDS011;54027;50.786;7.058;2023-11-19T13:58:29;14.50;;;3.88;;
67108;SDS011;54027;50.786;7.058;2023-11-19T14:00:55;14.00;;;3.90;;
67108;SDS011;54027;50.786;7.058;2023-11-19T14:03:20;14.52;;;3.30;;
67108;SDS011;54027;50.786;7.058;2023-11-19T14:05:46;19.80;;;2.95;;
67108;SDS011;54027;50.786;7.058;2023-11-19T14:14:58;17.42;;;3.40;;
67108;SDS011;54027;50.786;7.058;2023-11-19T14:17:25;19.38;;;3.97;;
67108;SDS011;54027;50.786;7.058;2023-11-19T14:19:50;15.73;;;4.13;;
67108;SDS011;54027;50.786;7.058;2023-11-19T14:22:16;16.33;;;2.90;;
67108;SDS011;54027;50.786;7.058;2023-11-19T14:24:42;17.83;;;4.07;;
67108;SDS011;54027;50.786;7.058;2023-11-19T14:27:08;19.67;;;3.95;;
67108;SDS011;54027;50.786;7.058;2023-11-19T14:29:37;15.73;;;4.10;;
67108;SDS011;54027;50.786;7.058;2023-11-19T14:32:03;14.73;;;4.00;;
67108;SDS011;54027;50.786;7.058;2023-11-19T14:34:29;12.02;;;3.40;;
67108;SDS011;54027;50.786;7.058;2023-11-19T14:39:52;17.75;;;3.25;;
67108;SDS011;54027;50.786;7.058;2023-11-19T14:42:19;11.57;;;2.47;;
67108;SDS011;54027;50.786;7.058;2023-11-19T14:44:46;13.73;;;2.65;;
67108;SDS011;54027;50.786;7.058;2023-11-19T14:47:11;8.60;;;2.53;;
67108;SDS011;54027;50.786;7.058;2023-11-19T14:49:37;14.50;;;2.30;;
67108;SDS011;54027;50.786;7.058;2023-11-19T14:55:42;15.52;;;2.20;;
67108;SDS011;54027;50.786;7.058;2023-11-19T15:02:21;8.70;;;1.77;;
67108;SDS011;54027;50.786;7.058;2023-11-19T15:04:47;12.57;;;2.92;;
67108;SDS011;54027;50.786;7.058;2023-11-19T15:13:56;15.98;;;2.40;;
67108;SDS011;54027;50.786;7.058;2023-11-19T15:16:22;9.52;;;2.55;;
67108;SDS011;54027;50.786;7.058;2023-11-19T15:19:01;14.70;;;3.00;;
67108;SDS011;54027;50.786;7.058;2023-11-19T15:21:29;11.93;;;3.03;;
67108;SDS011;54027;50.786;7.058;2023-11-19T15:23:55;9.88;;;2.42;;
67108;SDS011;54027;50.786;7.058;2023-11-19T15:26:24;13.57;;;3.22;;
67108;SDS011;54027;50.786;7.058;2023-11-19T15:28:49;12.80;;;2.72;;
67108;SDS011;54027;50.786;7.058;2023-11-19T15:31:15;8.35;;;2.30;;
67108;SDS011;54027;50.786;7.058;2023-11-19T15:33:41;10.07;;;2.78;;
67108;SDS011;54027;50.786;7.058;2023-11-19T15:36:07;13.32;;;3.00;;
67108;SDS011;54027;50.786;7.058;2023-11-19T15:38:43;16.00;;;3.22;;
67108;SDS011;54027;50.786;7.058;2023-11-19T15:41:09;11.65;;;2.92;;
67108;SDS011;54027;50.786;7.058;2023-11-19T15:43:37;10.52;;;3.30;;
67108;SDS011;54027;50.786;7.058;2023-11-19T15:46:10;17.05;;;3.53;;
67108;SDS011;54027;50.786;7.058;2023-11-19T15:48:39;17.77;;;4.00;;